createdAt,value
2018-03-29T00:00:49.672Z,0
2018-03-29T00:01:49.107Z,0
2018-03-29T00:02:49.407Z,0
2018-03-29T00:03:49.761Z,0
2018-03-29T00:04:49.429Z,0
2018-03-29T00:05:49.165Z,0
2018-03-29T00:06:49.468Z,0
2018-03-29T00:07:49.476Z,0
2018-03-29T00:08:49.539Z,0
2018-03-29T00:09:49.266Z,0
2018-03-29T00:10:48.959Z,0
2018-03-29T00:11:49.536Z,0
2018-03-29T00:12:49.556Z,0
2018-03-29T00:13:49.278Z,0
2018-03-29T00:14:49.019Z,0
2018-03-29T00:15:49.307Z,0
2018-03-29T00:16:49.605Z,0
2018-03-29T00:17:49.742Z,0
2018-03-29T00:18:49.349Z,0
2018-03-29T00:19:49.075Z,0
2018-03-29T00:20:49.379Z,0
2018-03-29T00:21:49.678Z,0
2018-03-29T00:22:49.693Z,0
2018-03-29T00:23:49.137Z,0
2018-03-29T00:24:50.006Z,0
2018-03-29T00:25:49.727Z,0
2018-03-29T00:26:49.755Z,0
2018-03-29T00:27:49.535Z,0
2018-03-29T00:28:49.552Z,0
2018-03-29T00:29:50.092Z,0
2018-03-29T00:30:49.806Z,0
2018-03-29T00:31:50.096Z,0
2018-03-29T00:32:50.113Z,0
2018-03-29T00:33:49.576Z,0
2018-03-29T00:34:49.582Z,0
2018-03-29T00:35:49.587Z,0
2018-03-29T00:36:49.606Z,0
2018-03-29T00:37:49.339Z,0
2018-03-29T00:38:49.918Z,0
2018-03-29T00:39:49.934Z,0
2018-03-29T00:40:50.248Z,0
2018-03-29T00:41:49.673Z,0
2018-03-29T00:42:49.972Z,0
2018-03-29T00:43:49.988Z,0
2018-03-29T00:44:49.732Z,0
2018-03-29T00:45:50.012Z,0
2018-03-29T00:46:49.468Z,0
2018-03-29T00:47:49.493Z,0
2018-03-29T00:48:49.772Z,0
2018-03-29T00:49:49.788Z,0
2018-03-29T00:50:49.520Z,0
2018-03-29T00:51:49.824Z,0
2018-03-29T00:52:50.119Z,0
2018-03-29T00:53:50.183Z,0
2018-03-29T00:54:49.858Z,0
2018-03-29T00:55:49.880Z,0
2018-03-29T00:56:49.893Z,0
2018-03-29T00:57:49.905Z,0
2018-03-29T00:58:49.917Z,0
2018-03-29T00:59:49.928Z,0
2018-03-29T01:00:49.946Z,0
2018-03-29T01:01:49.958Z,0
2018-03-29T01:02:50.319Z,0
2018-03-29T01:03:50.282Z,0
2018-03-29T01:04:50.285Z,0
2018-03-29T01:05:49.733Z,0
2018-03-29T01:06:50.037Z,0
2018-03-29T01:07:50.333Z,0
2018-03-29T01:08:50.620Z,0
2018-03-29T01:09:50.354Z,0
2018-03-29T01:10:50.378Z,0
2018-03-29T01:11:50.099Z,0
2018-03-29T01:12:50.114Z,0
2018-03-29T01:13:50.205Z,0
2018-03-29T01:14:50.422Z,0
2018-03-29T01:15:50.724Z,0
2018-03-29T01:16:50.182Z,0
2018-03-29T01:17:50.188Z,0
2018-03-29T01:18:50.198Z,0
2018-03-29T01:19:49.931Z,0
2018-03-29T01:20:50.245Z,0
2018-03-29T01:21:50.247Z,0
2018-03-29T01:22:50.830Z,0
2018-03-29T01:23:50.601Z,0
2018-03-29T01:24:50.001Z,0
2018-03-29T01:25:50.858Z,0
2018-03-29T01:26:50.891Z,0
2018-03-29T01:27:50.045Z,0
2018-03-29T01:28:50.340Z,0
2018-03-29T01:29:50.634Z,0
2018-03-29T01:30:50.691Z,0
2018-03-29T01:31:50.093Z,0
2018-03-29T01:32:50.111Z,0
2018-03-29T01:33:50.745Z,0
2018-03-29T01:34:50.994Z,0
2018-03-29T01:35:51.012Z,0
2018-03-29T01:36:51.016Z,0
2018-03-29T01:37:50.475Z,0
2018-03-29T01:38:50.481Z,0
2018-03-29T01:39:50.205Z,0
2018-03-29T01:40:50.787Z,0
2018-03-29T01:41:50.518Z,0
2018-03-29T01:42:50.816Z,0
2018-03-29T01:43:50.838Z,0
2018-03-29T01:44:50.847Z,0
2018-03-29T01:45:50.877Z,0
2018-03-29T01:46:50.587Z,0
2018-03-29T01:47:50.652Z,0
2018-03-29T01:48:50.901Z,0
2018-03-29T01:49:50.631Z,0
2018-03-29T01:50:50.640Z,0
2018-03-29T01:51:51.230Z,0
2018-03-29T01:52:50.672Z,0
2018-03-29T01:53:50.974Z,0
2018-03-29T01:54:51.311Z,0
2018-03-29T01:55:50.725Z,0
2018-03-29T01:56:51.332Z,0
2018-03-29T01:57:51.026Z,0
2018-03-29T01:58:51.048Z,0
2018-03-29T01:59:50.765Z,0
2018-03-29T02:00:51.075Z,0
2018-03-29T02:01:51.356Z,0
2018-03-29T02:02:50.812Z,0
2018-03-29T02:03:51.124Z,0
2018-03-29T02:04:51.457Z,0
2018-03-29T02:05:50.846Z,0
2018-03-29T02:06:50.302Z,0
2018-03-29T02:07:51.594Z,0
2018-03-29T02:08:50.892Z,0
2018-03-29T02:09:50.678Z,0
2018-03-29T02:10:51.483Z,0
2018-03-29T02:11:50.645Z,0
2018-03-29T02:12:51.508Z,0
2018-03-29T02:13:50.967Z,0
2018-03-29T02:14:51.545Z,0
2018-03-29T02:15:51.272Z,0
2018-03-29T02:16:51.566Z,0
2018-03-29T02:17:51.595Z,0
2018-03-29T02:18:51.027Z,0
2018-03-29T02:19:51.609Z,0
2018-03-29T02:20:51.334Z,0
2018-03-29T02:21:51.350Z,0
2018-03-29T02:22:51.079Z,0
2018-03-29T02:23:51.092Z,0
2018-03-29T02:24:51.499Z,0
2018-03-29T02:25:51.401Z,0
2018-03-29T02:26:51.698Z,0
2018-03-29T02:27:51.144Z,0
2018-03-29T02:28:51.451Z,0
2018-03-29T02:29:51.738Z,0
2018-03-29T02:30:51.249Z,0
2018-03-29T02:31:51.507Z,0
2018-03-29T02:32:51.505Z,0
2018-03-29T02:33:51.227Z,0
2018-03-29T02:34:51.258Z,0
2018-03-29T02:35:51.549Z,0
2018-03-29T02:36:51.569Z,0
2018-03-29T02:37:51.569Z,0
2018-03-29T02:38:51.022Z,0
2018-03-29T02:39:51.595Z,0
2018-03-29T02:40:51.897Z,0
2018-03-29T02:41:51.631Z,0
2018-03-29T02:42:51.633Z,0
2018-03-29T02:43:51.376Z,0
2018-03-29T02:44:51.670Z,0
2018-03-29T02:45:51.397Z,0
2018-03-29T02:46:51.976Z,0
2018-03-29T02:47:51.419Z,0
2018-03-29T02:48:51.713Z,0
2018-03-29T02:49:51.744Z,0
2018-03-29T02:50:51.459Z,0
2018-03-29T02:51:52.033Z,0
2018-03-29T02:52:51.778Z,0
2018-03-29T02:53:52.090Z,0
2018-03-29T02:54:51.515Z,0
2018-03-29T02:55:52.093Z,0
2018-03-29T02:56:51.815Z,0
2018-03-29T02:57:51.830Z,0
2018-03-29T02:58:51.568Z,0
2018-03-29T02:59:52.168Z,0
2018-03-29T03:00:52.183Z,0
2018-03-29T03:01:51.884Z,0
2018-03-29T03:02:51.617Z,0
2018-03-29T03:03:51.909Z,0
2018-03-29T03:04:51.989Z,0
2018-03-29T03:05:51.086Z,0
2018-03-29T03:06:52.247Z,0
2018-03-29T03:07:51.965Z,0
2018-03-29T03:08:51.988Z,0
2018-03-29T03:09:51.990Z,0
2018-03-29T03:10:51.435Z,0
2018-03-29T03:11:51.726Z,0
2018-03-29T03:12:52.312Z,0
2018-03-29T03:13:51.763Z,0
2018-03-29T03:14:52.057Z,0
2018-03-29T03:15:52.074Z,0
2018-03-29T03:16:52.369Z,0
2018-03-29T03:17:52.395Z,0
2018-03-29T03:18:52.131Z,0
2018-03-29T03:19:51.835Z,0
2018-03-29T03:20:51.847Z,0
2018-03-29T03:21:52.430Z,0
2018-03-29T03:22:51.894Z,0
2018-03-29T03:23:51.890Z,0
2018-03-29T03:24:51.921Z,0
2018-03-29T03:25:52.480Z,0
2018-03-29T03:26:52.207Z,0
2018-03-29T03:27:52.290Z,0
2018-03-29T03:28:51.963Z,0
2018-03-29T03:29:51.967Z,0
2018-03-29T03:30:51.985Z,0
2018-03-29T03:31:52.591Z,0
2018-03-29T03:32:52.289Z,0
2018-03-29T03:33:51.741Z,0
2018-03-29T03:34:52.036Z,0
2018-03-29T03:35:52.045Z,0
2018-03-29T03:36:52.345Z,0
2018-03-29T03:37:52.088Z,0
2018-03-29T03:38:52.374Z,0
2018-03-29T03:39:52.100Z,0
2018-03-29T03:40:51.828Z,0
2018-03-29T03:41:52.415Z,0
2018-03-29T03:42:52.707Z,0
2018-03-29T03:43:52.152Z,0
2018-03-29T03:44:52.504Z,0
2018-03-29T03:45:51.889Z,0
2018-03-29T03:46:52.186Z,0
2018-03-29T03:47:52.766Z,0
2018-03-29T03:48:52.497Z,0
2018-03-29T03:49:51.657Z,0
2018-03-29T03:50:52.236Z,0
2018-03-29T03:51:51.971Z,0
2018-03-29T03:52:52.273Z,0
2018-03-29T03:53:52.288Z,0
2018-03-29T03:54:52.313Z,0
2018-03-29T03:55:52.302Z,0
2018-03-29T03:56:52.604Z,0
2018-03-29T03:57:52.614Z,0
2018-03-29T03:58:52.629Z,0
2018-03-29T03:59:52.636Z,0
2018-03-29T04:00:52.376Z,0
2018-03-29T04:01:52.673Z,0
2018-03-29T04:02:52.678Z,0
2018-03-29T04:03:52.974Z,0
2018-03-29T04:04:52.763Z,0
2018-03-29T04:05:53.008Z,0
2018-03-29T04:06:52.161Z,0
2018-03-29T04:07:52.467Z,0
2018-03-29T04:08:52.474Z,0
2018-03-29T04:09:52.487Z,0
2018-03-29T04:10:53.068Z,0
2018-03-29T04:11:52.507Z,0
2018-03-29T04:12:52.799Z,0
2018-03-29T04:13:53.101Z,0
2018-03-29T04:14:53.121Z,0
2018-03-29T04:15:52.338Z,0
2018-03-29T04:16:53.143Z,0
2018-03-29T04:17:52.590Z,0
2018-03-29T04:18:52.321Z,0
2018-03-29T04:19:52.898Z,0
2018-03-29T04:20:52.625Z,0
2018-03-29T04:21:52.640Z,0
2018-03-29T04:22:52.657Z,0
2018-03-29T04:23:52.395Z,0
2018-03-29T04:24:53.243Z,0
2018-03-29T04:25:52.687Z,0
2018-03-29T04:26:52.421Z,0
2018-03-29T04:27:53.276Z,0
2018-03-29T04:28:52.442Z,0
2018-03-29T04:29:52.856Z,0
2018-03-29T04:30:53.056Z,0
2018-03-29T04:31:53.054Z,0
2018-03-29T04:32:52.775Z,0
2018-03-29T04:33:52.794Z,0
2018-03-29T04:34:53.083Z,0
2018-03-29T04:35:53.376Z,0
2018-03-29T04:36:52.827Z,0
2018-03-29T04:37:52.884Z,0
2018-03-29T04:38:53.423Z,0
2018-03-29T04:39:53.157Z,0
2018-03-29T04:40:53.161Z,0
2018-03-29T04:41:52.894Z,0
2018-03-29T04:42:53.465Z,0
2018-03-29T04:43:52.926Z,0
2018-03-29T04:44:53.267Z,0
2018-03-29T04:45:53.520Z,0
2018-03-29T04:46:52.950Z,0
2018-03-29T04:47:53.253Z,0
2018-03-29T04:48:52.981Z,0
2018-03-29T04:49:53.610Z,0
2018-03-29T04:50:53.570Z,0
2018-03-29T04:51:52.751Z,0
2018-03-29T04:52:53.030Z,0
2018-03-29T04:53:52.758Z,0
2018-03-29T04:54:53.053Z,0
2018-03-29T04:55:53.064Z,0
2018-03-29T04:56:53.365Z,0
2018-03-29T04:57:53.090Z,0
2018-03-29T04:58:53.111Z,0
2018-03-29T04:59:53.127Z,0
2018-03-29T05:00:53.748Z,0
2018-03-29T05:01:53.159Z,0
2018-03-29T05:02:53.734Z,0
2018-03-29T05:03:53.740Z,0
2018-03-29T05:04:52.614Z,0
2018-03-29T05:05:52.908Z,0
2018-03-29T05:06:52.928Z,0
2018-03-29T05:07:53.214Z,0
2018-03-29T05:08:52.957Z,0
2018-03-29T05:09:53.530Z,0
2018-03-29T05:10:53.825Z,0
2018-03-29T05:11:53.838Z,0
2018-03-29T05:12:53.575Z,0
2018-03-29T05:13:53.286Z,0
2018-03-29T05:14:53.023Z,0
2018-03-29T05:15:53.362Z,0
2018-03-29T05:16:53.615Z,0
2018-03-29T05:17:53.062Z,0
2018-03-29T05:18:53.640Z,0
2018-03-29T05:19:53.080Z,0
2018-03-29T05:20:53.666Z,0
2018-03-29T05:21:53.109Z,0
2018-03-29T05:22:53.696Z,0
2018-03-29T05:23:53.130Z,0
2018-03-29T05:24:53.424Z,0
2018-03-29T05:25:53.157Z,0
2018-03-29T05:26:53.733Z,0
2018-03-29T05:27:53.463Z,0
2018-03-29T05:28:53.818Z,0
2018-03-29T05:29:53.782Z,0
2018-03-29T05:30:53.834Z,0
2018-03-29T05:31:54.085Z,0
2018-03-29T05:32:53.241Z,0
2018-03-29T05:33:54.109Z,0
2018-03-29T05:34:53.558Z,0
2018-03-29T05:35:53.569Z,0
2018-03-29T05:36:53.858Z,0
2018-03-29T05:37:54.158Z,0
2018-03-29T05:38:54.168Z,0
2018-03-29T05:39:54.181Z,0
2018-03-29T05:40:54.471Z,5
2018-03-29T05:41:53.354Z,5
2018-03-29T05:42:54.232Z,5
2018-03-29T05:43:54.014Z,0
2018-03-29T05:44:54.240Z,0
2018-03-29T05:45:53.759Z,0
2018-03-29T05:46:54.053Z,0
2018-03-29T05:47:53.992Z,5
2018-03-29T05:48:53.439Z,5
2018-03-29T05:49:54.316Z,5
2018-03-29T05:50:54.085Z,5
2018-03-29T05:51:53.766Z,5
2018-03-29T05:52:53.773Z,5
2018-03-29T05:53:54.350Z,5
2018-03-29T05:54:54.163Z,5
2018-03-29T05:55:54.147Z,5
2018-03-29T05:56:54.106Z,5
2018-03-29T05:57:53.269Z,5
2018-03-29T05:58:54.141Z,5
2018-03-29T05:59:54.429Z,5
2018-03-29T06:00:53.868Z,5
2018-03-29T06:01:54.449Z,5
2018-03-29T06:02:54.205Z,5
2018-03-29T06:03:53.630Z,5
2018-03-29T06:04:54.210Z,5
2018-03-29T06:05:53.939Z,5
2018-03-29T06:06:53.966Z,5
2018-03-29T06:07:54.530Z,5
2018-03-29T06:08:53.688Z,5
2018-03-29T06:09:53.991Z,5
2018-03-29T06:10:54.567Z,10
2018-03-29T06:11:54.009Z,10
2018-03-29T06:12:53.458Z,10
2018-03-29T06:13:53.466Z,10
2018-03-29T06:14:54.327Z,10
2018-03-29T06:15:54.634Z,10
2018-03-29T06:16:54.359Z,10
2018-03-29T06:17:53.846Z,5
2018-03-29T06:18:54.389Z,5
2018-03-29T06:19:54.675Z,5
2018-03-29T06:20:54.457Z,5
2018-03-29T06:21:54.693Z,5
2018-03-29T06:22:54.430Z,5
2018-03-29T06:23:54.162Z,5
2018-03-29T06:24:53.890Z,5
2018-03-29T06:25:54.518Z,10
2018-03-29T06:26:54.474Z,5
2018-03-29T06:27:54.209Z,5
2018-03-29T06:28:54.218Z,5
2018-03-29T06:29:54.515Z,10
2018-03-29T06:30:54.820Z,10
2018-03-29T06:31:54.542Z,10
2018-03-29T06:32:54.562Z,10
2018-03-29T06:33:54.283Z,10
2018-03-29T06:34:54.867Z,5
2018-03-29T06:35:54.602Z,5
2018-03-29T06:36:54.033Z,5
2018-03-29T06:37:54.617Z,10
2018-03-29T06:38:54.914Z,10
2018-03-29T06:39:54.362Z,10
2018-03-29T06:40:54.136Z,15
2018-03-29T06:41:54.098Z,15
2018-03-29T06:42:54.673Z,15
2018-03-29T06:43:54.703Z,15
2018-03-29T06:44:54.714Z,15
2018-03-29T06:45:55.121Z,15
2018-03-29T06:46:54.762Z,15
2018-03-29T06:47:54.740Z,15
2018-03-29T06:48:54.751Z,15
2018-03-29T06:49:54.763Z,15
2018-03-29T06:50:54.833Z,15
2018-03-29T06:51:54.784Z,15
2018-03-29T06:52:54.841Z,15
2018-03-29T06:53:54.253Z,15
2018-03-29T06:54:54.650Z,15
2018-03-29T06:55:54.893Z,15
2018-03-29T06:56:54.288Z,15
2018-03-29T06:57:54.866Z,15
2018-03-29T06:58:54.600Z,15
2018-03-29T06:59:54.323Z,15
2018-03-29T07:00:55.025Z,15
2018-03-29T07:01:54.920Z,15
2018-03-29T07:02:54.651Z,15
2018-03-29T07:03:54.677Z,20
2018-03-29T07:04:54.112Z,20
2018-03-29T07:05:54.970Z,20
2018-03-29T07:06:54.694Z,20
2018-03-29T07:07:54.796Z,15
2018-03-29T07:08:54.725Z,15
2018-03-29T07:09:55.309Z,15
2018-03-29T07:10:55.309Z,15
2018-03-29T07:11:55.049Z,15
2018-03-29T07:12:54.487Z,15
2018-03-29T07:13:55.069Z,15
2018-03-29T07:14:54.572Z,10
2018-03-29T07:15:55.037Z,5
2018-03-29T07:16:54.824Z,5
2018-03-29T07:17:54.833Z,5
2018-03-29T07:18:55.415Z,5
2018-03-29T07:19:55.431Z,5
2018-03-29T07:20:55.443Z,5
2018-03-29T07:21:54.658Z,5
2018-03-29T07:22:55.195Z,5
2018-03-29T07:23:54.916Z,5
2018-03-29T07:24:55.211Z,5
2018-03-29T07:25:55.509Z,5
2018-03-29T07:26:55.563Z,10
2018-03-29T07:27:54.980Z,10
2018-03-29T07:28:54.698Z,15
2018-03-29T07:29:54.985Z,25
2018-03-29T07:30:55.628Z,15
2018-03-29T07:31:55.627Z,10
2018-03-29T07:32:55.320Z,15
2018-03-29T07:33:54.758Z,20
2018-03-29T07:34:55.332Z,20
2018-03-29T07:35:55.379Z,25
2018-03-29T07:36:55.080Z,20
2018-03-29T07:37:55.094Z,15
2018-03-29T07:38:55.699Z,20
2018-03-29T07:39:54.837Z,25
2018-03-29T07:40:55.133Z,25
2018-03-29T07:41:55.189Z,20
2018-03-29T07:42:55.717Z,20
2018-03-29T07:43:55.172Z,25
2018-03-29T07:44:55.461Z,15
2018-03-29T07:45:55.552Z,20
2018-03-29T07:46:55.210Z,25
2018-03-29T07:47:55.234Z,20
2018-03-29T07:48:55.526Z,20
2018-03-29T07:49:54.963Z,20
2018-03-29T07:50:55.255Z,20
2018-03-29T07:51:55.606Z,25
2018-03-29T07:52:55.629Z,25
2018-03-29T07:53:55.296Z,25
2018-03-29T07:54:55.045Z,20
2018-03-29T07:55:55.885Z,20
2018-03-29T07:56:55.900Z,25
2018-03-29T07:57:55.746Z,20
2018-03-29T07:58:55.361Z,20
2018-03-29T07:59:55.378Z,20
2018-03-29T08:00:55.673Z,20
2018-03-29T08:01:55.732Z,20
2018-03-29T08:02:55.415Z,25
2018-03-29T08:03:55.432Z,25
2018-03-29T08:04:55.441Z,20
2018-03-29T08:05:55.460Z,20
2018-03-29T08:06:55.238Z,20
2018-03-29T08:07:55.770Z,15
2018-03-29T08:08:55.496Z,25
2018-03-29T08:09:55.794Z,20
2018-03-29T08:10:55.235Z,20
2018-03-29T08:11:56.189Z,20
2018-03-29T08:12:55.550Z,15
2018-03-29T08:13:55.982Z,10
2018-03-29T08:14:55.294Z,10
2018-03-29T08:15:55.883Z,15
2018-03-29T08:16:55.884Z,15
2018-03-29T08:17:55.333Z,20
2018-03-29T08:18:55.926Z,15
2018-03-29T08:19:56.206Z,25
2018-03-29T08:20:55.654Z,20
2018-03-29T08:21:56.315Z,15
2018-03-29T08:22:55.968Z,15
2018-03-29T08:23:55.976Z,10
2018-03-29T08:24:56.292Z,10
2018-03-29T08:25:55.732Z,10
2018-03-29T08:26:55.790Z,10
2018-03-29T08:27:55.769Z,25
2018-03-29T08:28:56.330Z,35
2018-03-29T08:29:56.352Z,35
2018-03-29T08:30:56.075Z,35
2018-03-29T08:31:55.238Z,35
2018-03-29T08:32:56.220Z,30
2018-03-29T08:33:56.116Z,30
2018-03-29T08:34:56.128Z,30
2018-03-29T08:35:56.147Z,30
2018-03-29T08:36:56.198Z,20
2018-03-29T08:37:56.202Z,15
2018-03-29T08:38:55.898Z,15
2018-03-29T08:39:56.196Z,10
2018-03-29T08:40:55.654Z,15
2018-03-29T08:41:56.280Z,15
2018-03-29T08:42:55.990Z,20
2018-03-29T08:43:55.966Z,15
2018-03-29T08:44:55.977Z,10
2018-03-29T08:45:56.281Z,15
2018-03-29T08:46:56.299Z,15
2018-03-29T08:47:55.456Z,15
2018-03-29T08:48:56.316Z,10
2018-03-29T08:49:56.324Z,15
2018-03-29T08:50:56.348Z,15
2018-03-29T08:51:56.356Z,20
2018-03-29T08:52:56.088Z,20
2018-03-29T08:53:56.098Z,20
2018-03-29T08:54:56.681Z,20
2018-03-29T08:55:56.693Z,15
2018-03-29T08:56:56.141Z,15
2018-03-29T08:57:56.153Z,15
2018-03-29T08:58:56.455Z,10
2018-03-29T08:59:56.768Z,10
2018-03-29T09:00:56.207Z,10
2018-03-29T09:01:56.509Z,10
2018-03-29T09:02:56.230Z,10
2018-03-29T09:03:56.802Z,10
2018-03-29T09:04:56.541Z,10
2018-03-29T09:05:56.835Z,10
2018-03-29T09:06:56.616Z,10
2018-03-29T09:07:56.580Z,10
2018-03-29T09:08:57.114Z,10
2018-03-29T09:09:56.035Z,15
2018-03-29T09:10:56.627Z,15
2018-03-29T09:11:56.916Z,15
2018-03-29T09:12:56.360Z,15
2018-03-29T09:13:56.666Z,20
2018-03-29T09:14:56.959Z,30
2018-03-29T09:15:56.398Z,45
2018-03-29T09:16:56.416Z,40
2018-03-29T09:17:56.431Z,40
2018-03-29T09:18:56.731Z,40
2018-03-29T09:19:56.739Z,30
2018-03-29T09:20:56.468Z,35
2018-03-29T09:21:56.765Z,40
2018-03-29T09:22:56.777Z,40
2018-03-29T09:23:56.794Z,25
2018-03-29T09:24:57.083Z,20
2018-03-29T09:25:56.821Z,25
2018-03-29T09:26:57.118Z,35
2018-03-29T09:27:56.857Z,35
2018-03-29T09:28:57.154Z,35
2018-03-29T09:29:56.922Z,25
2018-03-29T09:30:56.609Z,25
2018-03-29T09:31:56.636Z,20
2018-03-29T09:32:56.649Z,30
2018-03-29T09:33:56.650Z,30
2018-03-29T09:34:56.381Z,35
2018-03-29T09:35:57.244Z,35
2018-03-29T09:36:56.695Z,30
2018-03-29T09:37:56.710Z,35
2018-03-29T09:38:56.721Z,30
2018-03-29T09:39:56.449Z,35
2018-03-29T09:40:57.036Z,35
2018-03-29T09:41:57.055Z,40
2018-03-29T09:42:56.774Z,30
2018-03-29T09:43:56.506Z,25
2018-03-29T09:44:57.374Z,25
2018-03-29T09:45:57.101Z,25
2018-03-29T09:46:57.119Z,30
2018-03-29T09:47:57.222Z,35
2018-03-29T09:48:56.864Z,35
2018-03-29T09:49:57.156Z,35
2018-03-29T09:50:56.615Z,35
2018-03-29T09:51:57.184Z,40
2018-03-29T09:52:56.918Z,30
2018-03-29T09:53:57.508Z,25
2018-03-29T09:54:57.513Z,30
2018-03-29T09:55:57.248Z,25
2018-03-29T09:56:57.266Z,35
2018-03-29T09:57:57.274Z,35
2018-03-29T09:58:57.596Z,30
2018-03-29T09:59:56.744Z,35
2018-03-29T10:00:56.745Z,40
2018-03-29T10:01:57.043Z,45
2018-03-29T10:02:57.394Z,35
2018-03-29T10:03:57.359Z,40
2018-03-29T10:04:57.376Z,40
2018-03-29T10:05:57.668Z,35
2018-03-29T10:06:57.400Z,45
2018-03-29T10:07:57.414Z,40
2018-03-29T10:08:57.427Z,50
2018-03-29T10:09:57.174Z,45
2018-03-29T10:10:56.890Z,35
2018-03-29T10:11:57.188Z,35
2018-03-29T10:12:57.549Z,30
2018-03-29T10:13:57.783Z,35
2018-03-29T10:14:57.236Z,35
2018-03-29T10:15:57.248Z,35
2018-03-29T10:16:57.544Z,30
2018-03-29T10:17:57.652Z,40
2018-03-29T10:18:57.674Z,50
2018-03-29T10:19:57.869Z,50
2018-03-29T10:20:57.319Z,55
2018-03-29T10:21:57.346Z,45
2018-03-29T10:22:57.632Z,45
2018-03-29T10:23:57.654Z,40
2018-03-29T10:24:57.667Z,40
2018-03-29T10:25:57.668Z,40
2018-03-29T10:26:57.402Z,35
2018-03-29T10:27:57.702Z,20
2018-03-29T10:28:57.437Z,20
2018-03-29T10:29:57.731Z,15
2018-03-29T10:30:57.492Z,20
2018-03-29T10:31:58.054Z,25
2018-03-29T10:32:58.057Z,30
2018-03-29T10:33:57.788Z,40
2018-03-29T10:34:57.812Z,45
2018-03-29T10:35:57.937Z,45
2018-03-29T10:36:57.549Z,50
2018-03-29T10:37:57.844Z,45
2018-03-29T10:38:57.970Z,40
2018-03-29T10:39:57.876Z,45
2018-03-29T10:40:57.328Z,40
2018-03-29T10:41:57.622Z,40
2018-03-29T10:42:58.207Z,40
2018-03-29T10:43:57.662Z,35
2018-03-29T10:44:57.953Z,45
2018-03-29T10:45:57.972Z,55
2018-03-29T10:46:57.698Z,50
2018-03-29T10:47:57.992Z,35
2018-03-29T10:48:58.012Z,30
2018-03-29T10:49:58.309Z,20
2018-03-29T10:50:57.765Z,30
2018-03-29T10:51:57.489Z,35
2018-03-29T10:52:58.077Z,30
2018-03-29T10:53:58.088Z,35
2018-03-29T10:54:57.822Z,40
2018-03-29T10:55:58.408Z,40
2018-03-29T10:56:58.136Z,40
2018-03-29T10:57:58.145Z,50
2018-03-29T10:58:58.454Z,50
2018-03-29T10:59:57.893Z,45
2018-03-29T11:00:58.478Z,40
2018-03-29T11:01:57.943Z,35
2018-03-29T11:02:57.933Z,25
2018-03-29T11:03:58.517Z,25
2018-03-29T11:04:58.258Z,40
2018-03-29T11:05:58.275Z,45
2018-03-29T11:06:57.994Z,45
2018-03-29T11:07:58.304Z,45
2018-03-29T11:08:58.313Z,40
2018-03-29T11:09:58.047Z,40
2018-03-29T11:10:57.774Z,40
2018-03-29T11:11:58.072Z,45
2018-03-29T11:12:58.661Z,35
2018-03-29T11:13:58.668Z,30
2018-03-29T11:14:58.412Z,25
2018-03-29T11:15:58.706Z,25
2018-03-29T11:16:58.445Z,25
2018-03-29T11:17:58.735Z,25
2018-03-29T11:18:57.956Z,20
2018-03-29T11:19:58.199Z,25
2018-03-29T11:20:57.932Z,30
2018-03-29T11:21:58.224Z,35
2018-03-29T11:22:58.529Z,30
2018-03-29T11:23:58.263Z,35
2018-03-29T11:24:58.301Z,35
2018-03-29T11:25:58.859Z,45
2018-03-29T11:26:58.877Z,55
2018-03-29T11:27:58.888Z,60
2018-03-29T11:28:58.681Z,65
2018-03-29T11:29:58.628Z,65
2018-03-29T11:30:58.657Z,60
2018-03-29T11:31:58.375Z,50
2018-03-29T11:32:58.115Z,45
2018-03-29T11:33:58.792Z,40
2018-03-29T11:34:58.708Z,35
2018-03-29T11:35:58.159Z,40
2018-03-29T11:36:59.036Z,50
2018-03-29T11:37:58.476Z,50
2018-03-29T11:38:58.847Z,40
2018-03-29T11:39:58.497Z,40
2018-03-29T11:40:58.520Z,40
2018-03-29T11:41:59.107Z,30
2018-03-29T11:42:58.835Z,30
2018-03-29T11:43:58.905Z,40
2018-03-29T11:44:58.873Z,50
2018-03-29T11:45:58.878Z,50
2018-03-29T11:46:58.623Z,50
2018-03-29T11:47:59.218Z,40
2018-03-29T11:48:58.693Z,35
2018-03-29T11:49:59.251Z,35
2018-03-29T11:50:58.681Z,30
2018-03-29T11:51:58.996Z,35
2018-03-29T11:52:59.398Z,35
2018-03-29T11:53:58.733Z,30
2018-03-29T11:54:59.310Z,30
2018-03-29T11:55:59.034Z,30
2018-03-29T11:56:58.763Z,30
2018-03-29T11:57:59.068Z,30
2018-03-29T11:58:59.139Z,35
2018-03-29T11:59:59.389Z,35
2018-03-29T12:00:59.112Z,35
2018-03-29T12:01:59.418Z,35
2018-03-29T12:02:59.146Z,35
2018-03-29T12:03:59.447Z,40
2018-03-29T12:04:59.172Z,35
2018-03-29T12:05:59.189Z,25
2018-03-29T12:06:58.923Z,15
2018-03-29T12:07:58.659Z,15
2018-03-29T12:08:59.525Z,15
2018-03-29T12:09:59.558Z,20
2018-03-29T12:10:59.285Z,30
2018-03-29T12:11:58.438Z,35
2018-03-29T12:12:59.319Z,35
2018-03-29T12:13:58.756Z,35
2018-03-29T12:14:59.342Z,35
2018-03-29T12:15:59.362Z,30
2018-03-29T12:16:59.650Z,30
2018-03-29T12:17:59.098Z,25
2018-03-29T12:18:59.112Z,25
2018-03-29T12:19:59.127Z,25
2018-03-29T12:20:59.151Z,20
2018-03-29T12:21:59.458Z,20
2018-03-29T12:22:59.182Z,20
2018-03-29T12:23:59.755Z,20
2018-03-29T12:24:59.502Z,25
2018-03-29T12:25:59.792Z,30
2018-03-29T12:26:59.245Z,30
2018-03-29T12:27:59.538Z,35
2018-03-29T12:28:59.576Z,35
2018-03-29T12:29:59.636Z,40
2018-03-29T12:30:59.319Z,40
2018-03-29T12:31:59.626Z,40
2018-03-29T12:32:59.674Z,40
2018-03-29T12:33:58.786Z,40
2018-03-29T12:34:59.378Z,40
2018-03-29T12:35:59.104Z,40
2018-03-29T12:36:59.685Z,40
2018-03-29T12:37:59.694Z,35
2018-03-29T12:38:59.434Z,30
2018-03-29T12:39:59.499Z,25
2018-03-29T12:41:00.036Z,30
2018-03-29T12:41:59.772Z,35
2018-03-29T12:42:59.778Z,30
2018-03-29T12:43:59.509Z,30
2018-03-29T12:44:59.746Z,30
2018-03-29T12:45:59.266Z,30
2018-03-29T12:47:00.066Z,25
2018-03-29T12:48:00.155Z,25
2018-03-29T12:48:59.881Z,25
2018-03-29T12:49:59.042Z,25
2018-03-29T12:50:59.913Z,30
2018-03-29T12:51:59.925Z,35
2018-03-29T12:52:59.949Z,35
2018-03-29T12:54:00.088Z,40
2018-03-29T12:55:00.255Z,50
2018-03-29T12:55:59.987Z,50
2018-03-29T12:56:59.727Z,50
2018-03-29T12:57:59.453Z,55
2018-03-29T12:58:59.752Z,55
2018-03-29T12:59:59.770Z,50
2018-03-29T13:00:59.790Z,50
2018-03-29T13:02:00.415Z,50
2018-03-29T13:03:00.099Z,45
2018-03-29T13:04:00.115Z,45
2018-03-29T13:04:59.561Z,40
2018-03-29T13:06:00.179Z,40
2018-03-29T13:07:00.199Z,45
2018-03-29T13:08:00.184Z,45
2018-03-29T13:09:00.305Z,40
2018-03-29T13:09:59.647Z,40
2018-03-29T13:10:59.946Z,40
2018-03-29T13:12:00.241Z,40
2018-03-29T13:12:59.687Z,40
2018-03-29T13:14:00.275Z,40
2018-03-29T13:15:00.288Z,40
2018-03-29T13:16:00.318Z,45
2018-03-29T13:16:59.760Z,50
2018-03-29T13:18:00.347Z,45
2018-03-29T13:19:00.637Z,40
2018-03-29T13:20:00.090Z,45
2018-03-29T13:21:00.102Z,50
2018-03-29T13:22:00.124Z,50
2018-03-29T13:23:00.775Z,60
2018-03-29T13:24:00.155Z,60
2018-03-29T13:25:00.228Z,45
2018-03-29T13:26:00.200Z,35
2018-03-29T13:27:00.199Z,25
2018-03-29T13:28:00.798Z,20
2018-03-29T13:29:00.229Z,20
2018-03-29T13:30:00.021Z,25
2018-03-29T13:31:01.039Z,25
2018-03-29T13:32:00.288Z,30
2018-03-29T13:33:00.578Z,30
2018-03-29T13:34:00.318Z,30
2018-03-29T13:35:00.670Z,40
2018-03-29T13:36:00.347Z,40
2018-03-29T13:37:00.081Z,30
2018-03-29T13:38:00.677Z,35
2018-03-29T13:39:00.970Z,40
2018-03-29T13:40:00.750Z,25
2018-03-29T13:41:00.428Z,20
2018-03-29T13:42:01.040Z,25
2018-03-29T13:43:01.037Z,25
2018-03-29T13:44:01.054Z,20
2018-03-29T13:45:01.076Z,25
2018-03-29T13:46:00.523Z,25
2018-03-29T13:47:00.813Z,20
2018-03-29T13:48:00.555Z,20
2018-03-29T13:49:00.850Z,35
2018-03-29T13:50:00.875Z,35
2018-03-29T13:51:00.881Z,30
2018-03-29T13:52:00.895Z,20
2018-03-29T13:53:00.621Z,25
2018-03-29T13:54:00.366Z,40
2018-03-29T13:55:00.368Z,30
2018-03-29T13:56:00.956Z,25
2018-03-29T13:57:00.976Z,35
2018-03-29T13:58:00.987Z,35
2018-03-29T13:59:00.721Z,35
2018-03-29T14:00:01.074Z,40
2018-03-29T14:01:00.473Z,40
2018-03-29T14:02:00.204Z,35
2018-03-29T14:03:01.080Z,40
2018-03-29T14:04:00.806Z,40
2018-03-29T14:05:01.153Z,35
2018-03-29T14:06:00.848Z,40
2018-03-29T14:07:00.573Z,35
2018-03-29T14:08:00.874Z,35
2018-03-29T14:09:01.453Z,35
2018-03-29T14:10:00.908Z,25
2018-03-29T14:11:01.203Z,15
2018-03-29T14:12:01.226Z,10
2018-03-29T14:13:01.232Z,10
2018-03-29T14:14:01.538Z,10
2018-03-29T14:15:01.275Z,15
2018-03-29T14:16:01.292Z,20
2018-03-29T14:17:01.305Z,25
2018-03-29T14:18:01.343Z,30
2018-03-29T14:19:01.331Z,25
2018-03-29T14:20:00.784Z,20
2018-03-29T14:21:01.375Z,20
2018-03-29T14:22:01.114Z,20
2018-03-29T14:23:01.701Z,20
2018-03-29T14:24:01.423Z,15
2018-03-29T14:25:01.235Z,15
2018-03-29T14:26:01.736Z,15
2018-03-29T14:27:01.186Z,15
2018-03-29T14:28:00.922Z,15
2018-03-29T14:29:01.514Z,15
2018-03-29T14:30:01.843Z,10